Angistri — SZMQ — position and weather

sailwx.info

Track history (hours):
 
Tides and Currents Weather Stations Pressure Air Temp Water Temp Dewpoint Dewpoint Depression Visibility Wind Speed Wind Dir Waves Ship Positions

Angistri

Last reported at 2018-Jan-23 03:30 UTC. Time now 2018-Jan-23 03:41 UTC.
Position N 50°15' W 000°26'.

Length 214 m; draft 8.1 m.

Type: Tanker. MMSI: 239668000.

Date/timePositionNaut miles runAvg speedWind from/ knotsBaromVisibWave heightAir tempDewpointWater temp
2018-Jan-23 03:30N 50°15' W 000°26'2112.9
2018-Jan-23 01:52N 50°09' W 000°58'412.3
2018-Jan-23 01:30N 50°08' W 001°04'813.0
2018-Jan-23 00:55N 50°06' W 001°16'613.5
2018-Jan-23 00:27N 50°04' W 001°25'613.9
2018-Jan-23 00:00N 50°02' W 001°34'914.3
2018-Jan-22 23:25N 50°00' W 001°47'2614.3
2018-Jan-22 21:37N 49°53' W 002°25'1113.7
2018-Jan-22 20:50N 49°51' W 002°41'1713.4
2018-Jan-22 19:35N 49°45' W 003°06'312.9
2018-Jan-22 19:19N 49°44' W 003°11'413.4
2018-Jan-22 19:00N 49°43' W 003°18'2113.4
2018-Jan-22 17:27N 49°38' W 003°49'3713.1
2018-Jan-22 14:37N 49°24' W 004°42'313.3
2018-Jan-22 14:26N 49°23' W 004°45'2413.0
2018-Jan-22 12:37N 49°18' W 005°20'313.0
2018-Jan-22 12:22N 49°17' W 005°25'4412.6
2018-Jan-22 08:53N 49°05' W 006°30'  
Track history (hours):
 
Tides and Currents Weather Stations Pressure Air Temp Water Temp Dewpoint Dewpoint Depression Visibility Wind Speed Wind Dir Waves Ship Positions

Angistri

Last reported at 2018-Jan-23 03:30 UTC. Time now 2018-Jan-23 03:41 UTC.
Position N 50°15' W 000°26'.

Length 214 m; draft 8.1 m.

Type: Tanker. MMSI: 239668000.

Date/timePositionNaut miles runAvg speedWind from/ knotsBaromVisibWave heightAir tempDewpointWater temp
2018-Jan-23 03:30N 50°15' W 000°26'2112.9
2018-Jan-23 01:52N 50°09' W 000°58'412.3
2018-Jan-23 01:30N 50°08' W 001°04'813.0
2018-Jan-23 00:55N 50°06' W 001°16'613.5
2018-Jan-23 00:27N 50°04' W 001°25'613.9
2018-Jan-23 00:00N 50°02' W 001°34'914.3
2018-Jan-22 23:25N 50°00' W 001°47'2614.3
2018-Jan-22 21:37N 49°53' W 002°25'1113.7
2018-Jan-22 20:50N 49°51' W 002°41'1713.4
2018-Jan-22 19:35N 49°45' W 003°06'312.9
2018-Jan-22 19:19N 49°44' W 003°11'413.4
2018-Jan-22 19:00N 49°43' W 003°18'2113.4
2018-Jan-22 17:27N 49°38' W 003°49'3713.1
2018-Jan-22 14:37N 49°24' W 004°42'313.3
2018-Jan-22 14:26N 49°23' W 004°45'2413.0
2018-Jan-22 12:37N 49°18' W 005°20'313.0
2018-Jan-22 12:22N 49°17' W 005°25'4412.6
2018-Jan-22 08:53N 49°05' W 006°30'  

Dump ship's entire track history